Time;durP1;ratioP1;P1;durP2;ratioP2;P2;SDS_P1;SDS_P2;PMS_P1;PMS_P2;Temp;Humidity;BMP_temperature;BMP_pressure;BME280_temperature;BME280_humidity;BME280_pressure;Samples;Min_cycle;Max_cycle;Signal;HPM_P1;HPM_P2
2020/12/11 00:00:25;;;;;;;8.47;6.30;;;;;;;9.22;100.00;99233.89;1854091;75;932533;-71
2020/12/11 00:02:55;;;;;;;7.40;5.23;;;;;;;9.11;100.00;99225.03;1865860;75;930619;-72
2020/12/11 00:05:25;;;;;;;8.37;5.50;;;;;;;9.19;100.00;99219.30;1833448;76;932470;-72
2020/12/11 00:07:55;;;;;;;6.67;5.33;;;;;;;9.16;100.00;99209.65;1866243;75;930689;-72
2020/12/11 00:10:25;;;;;;;7.97;5.10;;;;;;;9.14;100.00;99209.98;1833282;76;932673;-72
2020/12/11 00:12:54;;;;;;;7.07;5.00;;;;;;;9.19;100.00;99196.58;1865831;75;930991;-72
2020/12/11 00:15:24;;;;;;;6.10;4.53;;;;;;;9.18;100.00;99181.64;1833484;76;932403;-72
2020/12/11 00:17:54;;;;;;;6.67;4.30;;;;;;;9.25;100.00;99181.44;1866029;76;930589;-72
2020/12/11 00:20:24;;;;;;;6.93;4.70;;;;;;;9.26;100.00;99179.48;1833440;77;932486;-75
2020/12/11 00:22:54;;;;;;;7.40;4.40;;;;;;;9.16;100.00;99172.85;1866236;75;930538;-75
2020/12/11 00:25:24;;;;;;;7.47;4.50;;;;;;;9.23;100.00;99180.13;1854049;75;932527;-75
2020/12/11 00:27:53;;;;;;;6.20;4.73;;;;;;;9.29;100.00;99173.30;1845671;76;930598;-75
2020/12/11 00:30:23;;;;;;;6.50;4.97;;;;;;;9.30;100.00;99175.77;1854183;75;932552;-75
2020/12/11 00:32:53;;;;;;;7.13;4.30;;;;;;;9.26;100.00;99163.69;1865810;75;930394;-75
2020/12/11 00:35:23;;;;;;;7.77;4.57;;;;;;;9.27;100.00;99168.67;1833439;75;932440;-75
2020/12/11 00:37:53;;;;;;;7.60;4.77;;;;;;;9.22;100.00;99166.02;1866572;75;930657;-74
2020/12/11 00:40:22;;;;;;;7.13;4.80;;;;;;;9.25;100.00;99158.45;1853790;75;932801;-75
2020/12/11 00:42:54;;;;;;;9.37;4.50;;;;;;;9.25;100.00;99164.00;1866744;76;930792;-75
2020/12/11 00:45:24;;;;;;;8.43;4.87;;;;;;;9.28;100.00;99156.45;1833774;76;932668;-75
2020/12/11 00:47:53;;;;;;;8.60;5.03;;;;;;;9.30;100.00;99151.40;1845579;76;930468;-75
2020/12/11 00:50:23;;;;;;;7.13;4.57;;;;;;;9.31;100.00;99146.12;1854039;75;932688;-75
2020/12/11 00:52:53;;;;;;;7.03;4.13;;;;;;;9.26;100.00;99144.30;1844945;77;930524;-75
2020/12/11 00:55:23;;;;;;;9.10;3.83;;;;;;;9.30;100.00;99138.37;1853754;76;932768;-75
2020/12/11 00:57:53;;;;;;;6.87;4.10;;;;;;;9.37;100.00;99141.48;1845573;77;930418;-75
2020/12/11 01:00:22;;;;;;;6.53;3.98;;;;;;;9.40;100.00;99140.05;1854230;75;932586;-75
2020/12/11 01:02:52;;;;;;;4.60;3.53;;;;;;;9.40;100.00;99131.17;1865527;75;930530;-75
2020/12/11 01:05:22;;;;;;;6.03;2.80;;;;;;;9.40;100.00;99124.81;1833434;77;932401;-75
2020/12/11 01:07:52;;;;;;;5.80;3.50;;;;;;;9.44;100.00;99108.62;1866089;76;930493;-75
2020/12/11 01:10:22;;;;;;;4.20;3.23;;;;;;;9.44;100.00;99091.17;1854088;75;932467;-75
2020/12/11 01:12:52;;;;;;;5.63;2.57;;;;;;;9.46;100.00;99088.88;1845457;76;930491;-75
2020/12/11 01:15:22;;;;;;;4.83;2.10;;;;;;;9.52;100.00;99084.83;1853590;76;932524;-75
2020/12/11 01:17:52;;;;;;;6.43;2.10;;;;;;;9.59;100.00;99089.33;1866568;75;930535;-75
2020/12/11 01:20:22;;;;;;;2.40;1.20;;;;;;;9.65;100.00;99085.84;1833663;76;932369;-75
2020/12/11 01:22:52;;;;;;;4.60;1.60;;;;;;;9.66;100.00;99081.38;1866334;75;930532;-75
2020/12/11 01:25:22;;;;;;;4.00;2.30;;;;;;;9.69;100.00;99073.80;1853891;76;933626;-76
2020/12/11 01:27:52;;;;;;;3.10;1.40;;;;;;;9.70;100.00;99067.69;1866310;75;930510;-75
2020/12/11 01:30:22;;;;;;;2.52;1.00;;;;;;;9.69;100.00;99066.87;1833958;76;932580;-75
2020/12/11 01:32:51;;;;;;;2.80;1.00;;;;;;;9.72;100.00;99056.51;1866148;75;930453;-75
2020/12/11 01:35:21;;;;;;;2.17;1.15;;;;;;;9.73;100.00;99053.17;1853762;75;932615;-75
2020/12/11 01:37:51;;;;;;;2.87;1.20;;;;;;;9.77;100.00;99054.16;1866180;75;930434;-75
2020/12/11 01:40:21;;;;;;;0.80;0.80;;;;;;;9.77;100.00;99042.50;1833207;76;932432;-75
2020/12/11 01:42:51;;;;;;;2.00;0.80;;;;;;;9.76;100.00;99031.16;1866091;75;930513;-75
2020/12/11 01:45:20;;;;;;;2.05;0.90;;;;;;;9.76;100.00;99017.29;1853754;76;935407;-75
2020/12/11 01:47:50;;;;;;;2.47;1.00;;;;;;;9.76;100.00;99008.97;1845410;76;930661;-75
2020/12/11 01:50:20;;;;;;;3.13;1.10;;;;;;;9.81;100.00;99001.89;1854096;76;932440;-75
2020/12/11 01:52:52;;;;;;;4.00;1.20;;;;;;;9.79;100.00;98988.94;1845643;76;930653;-76
2020/12/11 01:55:22;;;;;;;2.22;0.90;;;;;;;9.78;100.00;98995.62;1853804;75;932448;-75
2020/12/11 01:57:56;;;;;;;3.00;1.00;;;;;;;9.78;100.00;99000.34;1866129;75;930506;-75
2020/12/11 02:00:26;;;;;;;3.50;0.90;;;;;;;9.79;100.00;99004.19;1854115;75;932582;-75
2020/12/11 02:03:04;;;;;;;4.47;1.10;;;;;;;9.81;100.00;99003.28;1865727;75;930560;-75
2020/12/11 02:05:34;;;;;;;3.37;1.03;;;;;;;9.80;100.00;99000.81;1866180;76;932497;-75
2020/12/11 02:08:05;;;;;;;3.93;1.13;;;;;;;9.86;100.00;98999.53;1862952;75;932546;-75
2020/12/11 02:10:35;;;;;;;5.57;0.90;;;;;;;9.88;100.00;99004.20;1866132;75;932627;-75
2020/12/11 02:13:08;;;;;;;2.03;1.03;;;;;;;9.85;100.00;99000.09;1854089;76;932362;-75
2020/12/11 02:15:38;;;;;;;3.33;1.07;;;;;;;9.87;100.00;98994.23;1845638;77;932425;-75
2020/12/11 02:18:08;;;;;;;4.13;0.90;;;;;;;9.87;100.00;98985.92;1854031;76;932432;-75
2020/12/11 02:20:38;;;;;;;2.00;0.90;;;;;;;9.91;100.00;98971.64;1866119;76;932427;-75
2020/12/11 02:23:08;;;;;;;5.00;1.07;;;;;;;9.91;100.00;98971.64;1853911;75;932434;-75
2020/12/11 02:25:40;;;;;;;2.93;1.20;;;;;;;9.86;100.00;98964.30;1866161;76;932365;-75
2020/12/11 02:28:09;;;;;;;4.33;1.00;;;;;;;9.88;100.00;98958.44;1853480;75;932417;-75
2020/12/11 02:30:39;;;;;;;4.77;1.10;;;;;;;9.91;100.00;98955.83;1866279;75;932708;-75
2020/12/11 02:33:09;;;;;;;3.90;0.90;;;;;;;9.85;100.00;98947.41;1833615;76;932486;-75
2020/12/11 02:35:42;;;;;;;3.37;1.00;;;;;;;9.89;100.00;98934.52;1866266;75;932703;-75
2020/12/11 02:38:12;;;;;;;6.20;1.40;;;;;;;9.92;100.00;98932.50;1833553;76;932554;-75
2020/12/11 02:40:46;;;;;;;2.67;1.00;;;;;;;9.93;100.00;98924.97;1866057;75;932347;-75
2020/12/11 02:43:16;;;;;;;8.98;1.60;;;;;;;9.92;100.00;98920.03;1853953;75;932517;-75
2020/12/11 02:45:48;;;;;;;5.77;1.30;;;;;;;9.96;100.00;98921.56;1866384;76;932530;-75
2020/12/11 02:48:18;;;;;;;2.70;1.40;;;;;;;9.97;100.00;98922.61;1853793;76;932494;-75
2020/12/11 02:50:49;;;;;;;5.63;1.17;;;;;;;10.01;100.00;98913.88;1866202;76;932612;-75
2020/12/11 02:53:23;;;;;;;3.53;1.13;;;;;;;10.05;100.00;98902.96;1832456;76;934773;-75
2020/12/11 02:55:53;;;;;;;4.50;1.30;;;;;;;10.05;100.00;98896.81;1866236;76;932738;-75
2020/12/11 02:58:23;;;;;;;4.57;1.17;;;;;;;10.00;100.00;98899.78;1833386;77;934573;-75
2020/12/11 03:00:54;;;;;;;6.93;1.30;;;;;;;10.06;100.00;98895.67;1865966;76;932740;-75
2020/12/11 03:03:26;;;;;;;4.70;1.10;;;;;;;10.04;100.00;98891.05;1853369;76;934638;-75
2020/12/11 03:05:57;;;;;;;4.03;1.10;;;;;;;10.02;100.00;98882.23;1844753;76;932670;-75
2020/12/11 03:08:28;;;;;;;6.60;1.40;;;;;;;10.08;100.00;98880.67;1853746;76;934650;-75
2020/12/11 03:10:59;;;;;;;6.20;1.27;;;;;;;10.13;100.00;98874.95;1865496;75;932698;-75
2020/12/11 03:13:31;;;;;;;4.50;1.20;;;;;;;10.08;100.00;98869.58;1853800;75;934677;-75
2020/12/11 03:16:02;;;;;;;7.23;1.60;;;;;;;10.10;100.00;98863.93;1866486;75;932661;-75
2020/12/11 03:18:33;;;;;;;6.90;1.30;;;;;;;10.11;100.00;98863.36;1866140;76;934669;-75
2020/12/11 03:21:05;;;;;;;5.67;1.17;;;;;;;10.12;100.00;98859.45;1866832;75;932732;-75
2020/12/11 03:23:36;;;;;;;6.07;1.70;;;;;;;10.12;100.00;98851.13;1865981;75;934783;-75
2020/12/11 03:26:12;;;;;;;1.80;1.10;;;;;;;10.16;100.00;98854.90;1853807;76;934490;-75
2020/12/11 03:28:43;;;;;;;8.93;1.20;;;;;;;10.15;100.00;98853.23;1865633;76;934705;-75
2020/12/11 03:31:16;;;;;;;3.25;1.30;;;;;;;10.14;100.00;98839.14;1853010;75;942265;-75
2020/12/11 03:33:46;;;;;;;6.07;1.30;;;;;;;10.21;100.00;98838.08;1865810;75;934648;-75
2020/12/11 03:36:20;;;;;;;5.50;1.37;;;;;;;10.17;100.00;98837.11;1833458;75;934614;-75
2020/12/11 03:38:50;;;;;;;7.07;1.20;;;;;;;10.22;100.00;98829.44;1866033;76;932874;-75
2020/12/11 03:41:20;;;;;;;4.10;1.30;;;;;;;10.17;100.00;98815.73;1854048;75;934570;-75
2020/12/11 03:43:50;;;;;;;2.17;0.97;;;;;;;10.19;100.00;98820.94;1866149;75;932604;-75
2020/12/11 03:46:21;;;;;;;4.23;1.17;;;;;;;10.19;100.00;98815.39;1854009;75;934462;-75
2020/12/11 03:48:53;;;;;;;5.60;1.67;;;;;;;10.20;100.00;98803.97;1866375;75;932617;-75
2020/12/11 03:51:23;;;;;;;7.90;1.20;;;;;;;10.20;100.00;98803.16;1854001;75;934461;-75
2020/12/11 03:53:53;;;;;;;3.63;1.30;;;;;;;10.19;100.00;98794.02;1845541;76;932690;-75
2020/12/11 03:56:23;;;;;;;4.03;1.00;;;;;;;10.20;100.00;98782.34;1853713;75;934843;-75
2020/12/11 03:58:53;;;;;;;1.77;0.90;;;;;;;10.23;100.00;98783.88;1866289;75;932637;-75
2020/12/11 04:01:23;;;;;;;5.83;1.00;;;;;;;10.22;100.00;98776.72;1853770;75;934547;-75
2020/12/11 04:03:54;;;;;;;2.23;0.97;;;;;;;10.24;100.00;98768.05;1845522;76;932649;-75
2020/12/11 04:06:25;;;;;;;2.10;0.90;;;;;;;10.23;100.00;98760.86;1853879;75;934522;-75
2020/12/11 04:08:55;;;;;;;4.20;0.90;;;;;;;10.23;100.00;98754.74;1845569;76;932584;-75
2020/12/11 04:11:25;;;;;;;3.60;0.80;;;;;;;10.28;100.00;98753.74;1853863;75;934760;-75
2020/12/11 04:13:55;;;;;;;4.63;0.80;;;;;;;10.26;100.00;98747.16;1866129;75;932653;-75
2020/12/11 04:16:24;;;;;;;4.07;0.80;;;;;;;10.29;100.00;98743.70;1831773;77;934605;-75
2020/12/11 04:18:54;;;;;;;1.83;0.63;;;;;;;10.30;100.00;98743.14;1866261;75;932642;-75
2020/12/11 04:21:24;;;;;;;4.27;0.93;;;;;;;10.34;100.00;98737.16;1853370;75;934671;-76
2020/12/11 04:23:54;;;;;;;3.30;0.70;;;;;;;10.31;100.00;98733.67;1845078;77;932668;-75
2020/12/11 04:26:24;;;;;;;2.77;0.90;;;;;;;10.34;100.00;98730.22;1853633;75;934934;-75
2020/12/11 04:28:54;;;;;;;1.70;0.67;;;;;;;10.32;100.00;98733.89;1845148;76;932625;-75
2020/12/11 04:31:23;;;;;;;2.67;0.70;;;;;;;10.35;100.00;98733.24;1854035;75;935591;-75
2020/12/11 04:33:53;;;;;;;2.10;0.97;;;;;;;10.36;100.00;98727.91;1845330;76;932834;-75
2020/12/11 04:36:23;;;;;;;2.20;0.67;;;;;;;10.39;100.00;98738.36;1853885;75;934677;-75
2020/12/11 04:38:53;;;;;;;3.23;1.13;;;;;;;10.38;100.00;98735.34;1866639;75;932748;-75
2020/12/11 04:41:24;;;;;;;2.83;0.70;;;;;;;10.42;100.00;98732.12;1853643;76;934431;-75
2020/12/11 04:43:57;;;;;;;3.87;1.03;;;;;;;10.48;100.00;98736.35;1866220;76;932723;-75
2020/12/11 04:46:28;;;;;;;4.13;0.87;;;;;;;10.51;100.00;98741.22;1833409;76;934534;-74
2020/12/11 04:48:59;;;;;;;3.90;0.97;;;;;;;10.47;100.00;98741.09;1866145;75;932562;-75
2020/12/11 04:51:31;;;;;;;4.78;0.80;;;;;;;10.44;100.00;98740.34;1851459;75;1040227;-75
2020/12/11 04:54:04;;;;;;;4.23;1.10;;;;;;;10.52;100.00;98744.24;1866193;76;934675;-75
2020/12/11 04:56:35;;;;;;;8.20;1.40;;;;;;;10.52;100.00;98742.86;1845260;76;934786;-75
2020/12/11 04:59:05;;;;;;;6.13;1.57;;;;;;;10.54;100.00;98741.92;1853890;75;934460;-76
2020/12/11 05:01:35;;;;;;;2.50;1.53;;;;;;;10.55;100.00;98739.97;1833439;76;934560;-75
2020/12/11 05:04:05;;;;;;;4.97;1.80;;;;;;;10.54;100.00;98741.11;1854160;76;934585;-75
2020/12/11 05:06:35;;;;;;;5.07;1.70;;;;;;;10.53;100.00;98743.06;1845616;76;934662;-75
2020/12/11 05:09:16;;;;;;;5.40;1.60;;;;;;;10.56;100.00;98741.60;1853924;75;933548;-75
2020/12/11 05:11:47;;;;;;;3.77;2.30;;;;;;;10.55;100.00;98749.11;1845528;76;934702;-75
2020/12/11 05:14:21;;;;;;;4.95;2.08;;;;;;;10.56;100.00;98745.19;1853837;75;934458;-75
2020/12/11 05:17:00;;;;;;;5.13;2.33;;;;;;;10.54;100.00;98738.33;1845410;76;932559;-75
2020/12/11 05:19:31;;;;;;;7.07;2.33;;;;;;;10.52;100.00;98734.52;1865871;76;934612;-75
2020/12/11 05:22:11;;;;;;;5.40;2.10;;;;;;;10.57;100.00;98730.14;1865935;75;932578;-75
2020/12/11 05:24:43;;;;;;;4.50;2.20;;;;;;;10.54;100.00;98721.68;1845255;77;934624;-76
2020/12/11 05:27:34;;;;;;;5.50;2.02;;;;;;;10.60;100.00;98717.57;1854248;75;944359;-75
2020/12/11 05:30:24;;;;;;;7.73;2.80;;;;;;;10.65;100.00;98716.80;1845007;76;934580;-75
2020/12/11 05:32:56;;;;;;;9.23;2.93;;;;;;;10.55;100.00;98710.25;1881372;75;932635;-75
2020/12/11 05:35:30;;;;;;;4.23;2.50;;;;;;;10.62;100.00;98706.92;1875400;75;934499;-75
2020/12/11 05:38:03;;;;;;;6.17;2.80;;;;;;;10.53;100.00;98715.88;1887831;75;932617;-75
2020/12/11 05:40:35;;;;;;;6.63;2.57;;;;;;;10.53;100.00;98708.38;1845590;76;933339;-75
2020/12/11 05:43:15;;;;;;;6.57;2.70;;;;;;;10.54;100.00;98694.73;1853976;75;934615;-76
2020/12/11 05:46:02;;;;;;;8.90;3.00;;;;;;;10.49;100.00;98686.61;1865420;76;934681;-75
2020/12/11 05:48:40;;;;;;;7.30;2.90;;;;;;;10.37;100.00;98695.67;1865866;76;934795;-75
2020/12/11 05:51:14;;;;;;;7.95;2.90;;;;;;;10.39;100.00;98680.91;1833496;76;934555;-75
2020/12/11 05:53:44;;;;;;;9.47;3.50;;;;;;;10.37;100.00;98679.02;1865899;76;934597;-75
2020/12/11 05:56:15;;;;;;;9.55;2.92;;;;;;;10.45;100.00;98678.15;1830158;77;934752;-75
2020/12/11 05:58:46;;;;;;;9.13;3.20;;;;;;;10.43;100.00;98672.14;1865475;76;934600;-75
2020/12/11 06:01:19;;;;;;;8.48;3.00;;;;;;;10.57;100.00;98672.45;1833565;76;934510;-75
2020/12/11 06:03:51;;;;;;;5.63;2.80;;;;;;;10.45;100.00;98675.37;1866031;75;932654;-75
2020/12/11 06:06:24;;;;;;;5.40;3.35;;;;;;;10.41;100.00;98667.48;1832357;76;934458;-75
2020/12/11 06:08:56;;;;;;;7.20;3.57;;;;;;;10.46;100.00;98662.31;1865132;76;932827;-76
2020/12/11 06:11:29;;;;;;;7.77;3.60;;;;;;;10.46;100.00;98658.97;1854390;75;934395;-75
2020/12/11 06:14:00;;;;;;;10.03;3.97;;;;;;;10.47;100.00;98659.78;1865905;75;932649;-75
2020/12/11 06:16:33;;;;;;;9.80;4.43;;;;;;;10.53;100.00;98658.98;1845963;76;936800;-75
2020/12/11 06:19:06;;;;;;;9.43;4.00;;;;;;;10.43;100.00;98650.51;1865179;76;932585;-75
2020/12/11 06:21:37;;;;;;;9.57;4.10;;;;;;;10.33;100.00;98650.90;1865872;75;934542;-75
2020/12/11 06:24:24;;;;;;;16.57;4.53;;;;;;;10.34;100.00;98651.96;1833439;77;934592;-76
2020/12/11 06:26:58;;;;;;;10.23;4.00;;;;;;;10.30;100.00;98651.58;1865704;76;934855;-75
2020/12/11 06:29:29;;;;;;;10.80;5.17;;;;;;;10.36;100.00;98653.80;1833432;76;936581;-75
2020/12/11 06:31:59;;;;;;;11.63;4.63;;;;;;;10.45;100.00;98655.12;1866153;75;934739;-75
2020/12/11 06:34:29;;;;;;;10.60;4.17;;;;;;;10.41;100.00;98656.96;1845504;77;936608;-75
2020/12/11 06:37:00;;;;;;;15.40;5.60;;;;;;;10.36;100.00;98656.58;1866122;75;934636;-75
2020/12/11 06:39:44;;;;;;;10.63;4.93;;;;;;;10.33;100.00;98648.94;1845571;76;936762;-75
2020/12/11 06:42:45;;;;;;;13.27;5.20;;;;;;;10.40;100.00;98656.72;1853679;75;936595;-75
2020/12/11 06:45:20;;;;;;;11.27;4.97;;;;;;;10.39;100.00;98654.54;1854102;75;936663;-75
2020/12/11 06:47:55;;;;;;;9.60;4.87;;;;;;;10.34;100.00;98656.12;1865822;75;934789;-75
2020/12/11 06:50:27;;;;;;;13.40;5.20;;;;;;;10.28;100.00;98663.58;1833416;76;934538;-75
2020/12/11 06:52:58;;;;;;;10.37;4.77;;;;;;;10.26;100.00;98656.18;1866099;76;934598;-75
2020/12/11 06:55:50;;;;;;;13.30;6.07;;;;;;;10.31;100.00;98657.38;1852911;75;936743;-75
2020/12/11 06:58:22;;;;;;;12.80;5.23;;;;;;;10.37;100.00;98658.21;1853566;75;936754;-74
2020/12/11 07:00:54;;;;;;;12.67;5.77;;;;;;;10.42;100.00;98658.02;1866179;76;934842;-75
2020/12/11 07:03:29;;;;;;;13.53;5.77;;;;;;;10.34;100.00;98658.08;1853260;76;936833;-75
2020/12/11 07:06:10;;;;;;;14.37;5.50;;;;;;;10.27;100.00;98649.48;1845655;76;934718;-75
2020/12/11 07:08:40;;;;;;;17.63;6.60;;;;;;;10.32;100.00;98647.88;1866154;76;936670;-75
2020/12/11 07:11:15;;;;;;;15.13;5.50;;;;;;;10.35;100.00;98645.27;1833387;76;935814;-76
2020/12/11 07:13:52;;;;;;;14.63;6.17;;;;;;;10.16;100.00;98641.30;1865963;76;936581;-75
2020/12/11 07:16:22;;;;;;;14.20;6.17;;;;;;;10.11;100.00;98643.66;1854006;75;937026;-74
2020/12/11 07:18:52;;;;;;;12.07;4.97;;;;;;;10.11;100.00;98647.01;1845337;76;934713;-74
2020/12/11 07:21:28;;;;;;;7.60;4.67;;;;;;;10.07;100.00;98641.33;1853679;76;936555;-74
2020/12/11 07:23:58;;;;;;;10.93;5.70;;;;;;;9.93;100.00;98637.98;1845106;76;932646;-74
2020/12/11 07:26:29;;;;;;;13.87;7.70;;;;;;;9.85;100.00;98629.95;1853665;75;934480;-74
2020/12/11 07:29:05;;;;;;;24.60;7.70;;;;;;;9.83;100.00;98632.83;1845565;76;932659;-74
2020/12/11 07:31:40;;;;;;;13.53;6.03;;;;;;;9.58;100.00;98629.05;1866250;75;934442;-74
2020/12/11 07:34:17;;;;;;;41.50;7.90;;;;;;;9.65;100.00;98633.48;1833482;77;934575;-74
2020/12/11 07:36:47;;;;;;;24.93;5.93;;;;;;;9.52;100.00;98630.36;1866518;75;934620;-74
2020/12/11 07:39:18;;;;;;;11.27;5.27;;;;;;;9.44;100.00;98632.59;1833316;77;934540;-74
2020/12/11 07:41:50;;;;;;;14.93;5.33;;;;;;;9.49;100.00;98643.50;1865697;75;934457;-74
2020/12/11 07:44:24;;;;;;;14.30;6.80;;;;;;;9.46;100.00;98640.80;1854180;75;934479;-74
2020/12/11 07:46:56;;;;;;;15.70;6.93;;;;;;;9.73;100.00;98642.90;1845485;76;932635;-74
2020/12/11 07:49:35;;;;;;;11.77;6.63;;;;;;;9.92;100.00;98644.69;1853713;75;933427;-72
2020/12/11 07:52:06;;;;;;;15.00;7.57;;;;;;;9.92;100.00;98641.34;1833412;76;934654;-74
2020/12/11 07:54:37;;;;;;;18.47;7.53;;;;;;;9.90;100.00;98637.27;1865980;76;934505;-74
2020/12/11 07:57:11;;;;;;;20.63;7.07;;;;;;;9.80;100.00;98629.32;1833240;77;934615;-74
2020/12/11 07:59:42;;;;;;;31.50;7.97;;;;;;;9.81;100.00;98630.95;1866027;76;934369;-73
2020/12/11 08:02:14;;;;;;;15.83;6.28;;;;;;;9.81;100.00;98632.34;1854458;75;934485;-72
2020/12/11 08:04:44;;;;;;;17.80;6.87;;;;;;;9.77;100.00;98638.31;1844974;76;934642;-73
2020/12/11 08:07:22;;;;;;;14.77;6.17;;;;;;;9.78;100.00;98636.61;1854641;75;937552;-77
2020/12/11 08:09:53;;;;;;;37.30;9.20;;;;;;;9.77;100.00;98628.61;1845568;77;932699;-78
2020/12/11 08:12:23;;;;;;;14.00;7.30;;;;;;;9.78;100.00;98639.38;1854167;75;934657;-78
2020/12/11 08:14:53;;;;;;;17.23;6.80;;;;;;;9.78;100.00;98643.53;1865838;76;932693;-78
2020/12/11 08:17:24;;;;;;;24.37;7.83;;;;;;;9.77;100.00;98644.67;1833535;76;934562;-78
2020/12/11 08:20:00;;;;;;;22.93;7.80;;;;;;;9.79;100.00;98641.01;1866203;76;932741;-78
2020/12/11 08:22:34;;;;;;;16.90;7.27;;;;;;;9.76;100.00;98645.81;1866120;75;934537;-76
2020/12/11 08:25:19;;;;;;;26.17;8.60;;;;;;;9.81;100.00;98655.91;1838315;76;934562;-77
2020/12/11 08:27:49;;;;;;;17.63;7.50;;;;;;;9.81;100.00;98647.59;1857434;75;934765;-77
2020/12/11 08:30:22;;;;;;;20.07;9.17;;;;;;;9.85;100.00;98648.55;1853757;75;944200;-75
2020/12/11 08:32:51;;;;;;;32.00;9.13;;;;;;;9.89;100.00;98648.93;1865914;75;932625;-79
2020/12/11 08:35:23;;;;;;;21.27;8.93;;;;;;;9.89;100.00;98650.31;1854831;75;934640;-76
2020/12/11 08:37:55;;;;;;;24.10;9.47;;;;;;;9.91;100.00;98652.20;1844110;77;933178;-75
2020/12/11 08:40:26;;;;;;;22.00;10.20;;;;;;;10.01;100.00;98663.48;1853176;76;934719;-77
2020/12/11 08:43:11;;;;;;;26.23;10.40;;;;;;;10.05;100.00;98668.00;1845226;76;936914;-76
2020/12/11 08:45:38;;;;;;;21.47;11.57;;;;;;;10.00;100.00;98655.73;1864905;76;938705;-76
2020/12/11 08:48:25;;;;;;;30.73;11.87;;;;;;;10.06;100.00;98661.88;1853345;75;938824;-76
2020/12/11 08:50:57;;;;;;;24.83;11.07;;;;;;;10.13;100.00;98665.53;1865746;75;936921;-76
2020/12/11 08:53:27;;;;;;;32.00;11.47;;;;;;;10.16;100.00;98656.56;1852975;75;938565;-76
2020/12/11 08:55:56;;;;;;;25.93;10.80;;;;;;;10.16;100.00;98651.83;1844953;76;936778;-76
2020/12/11 08:58:26;;;;;;;23.27;10.30;;;;;;;10.15;100.00;98657.67;1853261;75;938709;-76
2020/12/11 09:00:55;;;;;;;24.40;10.30;;;;;;;10.14;100.00;98659.63;1845293;77;936756;-75
2020/12/11 09:03:25;;;;;;;25.43;10.80;;;;;;;10.26;100.00;98650.63;1853644;75;938626;-76
2020/12/11 09:05:55;;;;;;;26.37;9.90;;;;;;;10.23;100.00;98649.89;1845512;76;936704;-76
2020/12/11 09:08:25;;;;;;;27.60;10.43;;;;;;;10.24;100.00;98647.36;1854080;75;936613;-75
2020/12/11 09:10:55;;;;;;;25.40;10.37;;;;;;;10.28;100.00;98644.97;1841380;77;936933;-76
2020/12/11 09:13:25;;;;;;;24.17;9.40;;;;;;;10.32;100.00;98645.92;1853484;76;938746;-76
2020/12/11 09:15:54;;;;;;;28.83;9.20;;;;;;;10.29;100.00;98642.44;1845620;76;934627;-76
2020/12/11 09:18:24;;;;;;;22.07;8.93;;;;;;;10.34;100.00;98644.20;1854024;76;936577;-76
2020/12/11 09:20:54;;;;;;;25.13;10.03;;;;;;;10.44;100.00;98657.09;1845735;76;934895;-76
2020/12/11 09:23:24;;;;;;;24.67;10.07;;;;;;;10.47;100.00;98655.05;1853768;75;938756;-76
2020/12/11 09:25:54;;;;;;;24.40;10.90;;;;;;;10.49;100.00;98653.30;1844655;76;936740;-76
2020/12/11 09:28:25;;;;;;;25.80;9.47;;;;;;;10.48;100.00;98652.48;1853194;76;938664;-78
2020/12/11 09:30:55;;;;;;;31.73;8.93;;;;;;;10.52;100.00;98659.59;1845694;76;935202;-78
2020/12/11 09:33:27;;;;;;;30.23;10.23;;;;;;;10.54;100.00;98658.66;1853529;76;936689;-77
2020/12/11 09:35:56;;;;;;;22.73;9.57;;;;;;;10.58;100.00;98660.99;1866166;75;936671;-77
2020/12/11 09:38:26;;;;;;;28.73;11.70;;;;;;;10.62;100.00;98663.33;1833325;77;936681;-77
2020/12/11 09:41:00;;;;;;;29.07;12.57;;;;;;;10.62;100.00;98663.33;1865282;76;936955;-77
2020/12/11 09:43:45;;;;;;;31.07;15.23;;;;;;;10.65;100.00;98654.91;1853115;75;938740;-77
2020/12/11 09:46:19;;;;;;;34.23;15.93;;;;;;;10.65;100.00;98659.08;1852387;75;941630;-77
2020/12/11 09:48:48;;;;;;;35.43;18.70;;;;;;;10.63;100.00;98659.41;1865359;75;938633;-78
2020/12/11 09:54:15;;;;;;;27.90;10.33;;;;;;;10.68;100.00;98667.53;1853046;76;938690;-78
2020/12/11 09:56:45;;;;;;;25.40;11.23;;;;;;;10.65;100.00;98668.80;1866259;76;938709;-76
2020/12/11 09:59:17;;;;;;;28.90;12.33;;;;;;;10.64;100.00;98672.14;1833069;77;938818;-76
2020/12/11 10:01:58;;;;;;;27.27;12.60;;;;;;;10.65;100.00;98679.33;1866254;75;938827;-76
2020/12/11 10:04:24;;;;;;;27.53;11.47;;;;;;;10.70;100.00;98676.89;1852988;75;938704;-77
2020/12/11 10:06:53;;;;;;;27.70;12.87;;;;;;;10.71;100.00;98675.75;1845375;77;936799;-77
2020/12/11 10:09:23;;;;;;;31.93;13.33;;;;;;;10.75;100.00;98675.30;1854138;75;938608;-76
2020/12/11 10:11:54;;;;;;;29.00;10.17;;;;;;;10.76;100.00;98672.77;1845372;76;936889;-77
2020/12/11 10:14:29;;;;;;;25.77;10.50;;;;;;;10.71;100.00;98671.59;1853614;75;938979;-77
2020/12/11 10:16:59;;;;;;;29.10;10.35;;;;;;;10.73;100.00;98672.08;1866267;75;936755;-77
2020/12/11 10:19:28;;;;;;;31.83;11.27;;;;;;;10.72;100.00;98668.48;1831167;76;1055673;-77
2020/12/11 10:21:58;;;;;;;22.63;10.23;;;;;;;10.72;100.00;98665.70;1866019;76;938825;-77
2020/12/11 10:24:28;;;;;;;25.70;10.57;;;;;;;10.72;100.00;98662.92;1853393;75;938812;-77
2020/12/11 10:26:58;;;;;;;21.50;10.33;;;;;;;10.76;100.00;98654.73;1845728;76;936769;-77
2020/12/11 10:29:28;;;;;;;24.90;10.17;;;;;;;10.83;100.00;98659.14;1853920;75;938837;-77
2020/12/11 10:31:58;;;;;;;30.63;10.63;;;;;;;10.80;100.00;98650.94;1866350;75;936796;-77
2020/12/11 10:34:27;;;;;;;28.23;10.67;;;;;;;10.87;100.00;98646.20;1833226;77;938715;-77
2020/12/11 10:36:57;;;;;;;26.97;10.73;;;;;;;10.87;100.00;98642.85;1866011;76;936966;-77
2020/12/11 10:39:27;;;;;;;25.53;11.13;;;;;;;10.93;100.00;98635.13;1833338;77;938758;-77
2020/12/11 10:42:00;;;;;;;24.33;10.87;;;;;;;10.99;100.00;98632.96;1866293;75;936745;-77
2020/12/11 10:44:31;;;;;;;26.57;12.43;;;;;;;11.00;100.00;98635.38;1865416;75;938760;-77
2020/12/11 10:47:01;;;;;;;28.30;11.40;;;;;;;11.01;100.00;98637.01;1845481;76;936696;-77
2020/12/11 10:49:31;;;;;;;24.53;11.07;;;;;;;11.11;100.00;98639.94;1866182;75;938938;-77
2020/12/11 10:52:01;;;;;;;24.70;10.97;;;;;;;11.22;100.00;98640.55;1844632;76;936932;-77
2020/12/11 10:54:31;;;;;;;30.50;11.60;;;;;;;11.25;100.00;98639.84;1866231;76;938801;-77
2020/12/11 10:57:01;;;;;;;32.87;12.77;;;;;;;11.31;100.00;98634.89;1846080;76;936825;-77
2020/12/11 10:59:31;;;;;;;26.17;11.80;;;;;;;11.29;100.00;98629.70;1866130;76;938801;-77
2020/12/11 11:02:01;;;;;;;29.60;12.80;;;;;;;11.30;100.00;98624.35;1845305;77;936817;-77
2020/12/11 11:04:31;;;;;;;27.30;11.43;;;;;;;11.39;100.00;98620.08;1865964;75;938815;-77
2020/12/11 11:07:03;;;;;;;25.50;11.53;;;;;;;11.45;100.00;98621.50;1845317;76;936949;-77
2020/12/11 11:09:40;;;;;;;32.47;11.70;;;;;;;11.54;100.00;98622.78;1866135;75;938934;-77
2020/12/11 11:12:19;;;;;;;30.88;13.03;;;;;;;11.53;100.00;98622.55;1853418;75;938808;-77
2020/12/11 11:23:48;;;;;;;29.33;11.57;;;;;;;11.62;100.00;98613.52;1789609;77;938793;-77
2020/12/11 11:26:21;;;;;;;30.67;11.10;;;;;;;11.61;100.00;98611.89;1777390;77;938898;-77
2020/12/11 11:28:50;;;;;;;30.17;11.40;;;;;;;11.64;100.00;98617.56;1820767;76;936969;-77
2020/12/11 11:31:20;;;;;;;26.82;11.05;;;;;;;11.70;100.00;98616.19;1853906;75;938706;-77
2020/12/11 11:33:49;;;;;;;27.63;10.63;;;;;;;11.80;100.00;98617.73;1866139;76;936878;-77
2020/12/11 11:36:19;;;;;;;28.02;10.72;;;;;;;11.83;100.00;98615.06;1832118;76;939035;-77
2020/12/11 11:38:49;;;;;;;29.67;11.10;;;;;;;11.85;100.00;98612.73;1865815;75;936846;-75
2020/12/11 11:44:25;;;;;;;24.37;9.60;;;;;;;12.05;100.00;98611.00;1852827;75;938454;-75
2020/12/11 11:46:54;;;;;;;24.73;9.47;;;;;;;12.08;100.00;98613.07;1866084;75;934712;-76
2020/12/11 11:49:28;;;;;;;31.37;10.30;;;;;;;12.10;100.00;98611.34;1854013;76;936632;-77